Decoded Metar for YBUD ( in ) (IATA:) | Meteo·Mobile Aviation Weather
aviador You're here:

YBUD Decoded Metar

in
Report Time2018-12-15 00:30:00
UTC Time2018-12-15 00:46:27
Flight Rules ifr IFR
Wind120° at 10 kt
W.Decomp.*RWY 14: 9.4 kt HW 3.4 kt LCW
RWY 07: 6.4 kt HW 7.7 kt RCW
W.Rank120° ranks 9
Current wind is below 120° avg. (11.5)
Visibility9999 m
Phenomena:Light Shower Rain
Clouds:Broken 009 Hf
Overcast 013 Hf
Expected CloudBase > 400 ft AGL from Temp-Dew spread
Ceiling900 ft
Temp25°C
Dew Point24°C (94% RH)
QNH1009 hPa
Raw Report
SPECI YBUD 150030Z AUTO 12010KT 9999 -SHRA BKN009 OVC013 25/24 Q1009=

Extra information for YBUD:More info

Social comments